Hauptseite
METAR-TAF:

METAR-TAF

Flughäfen :

Yap, Mikronesien

Breite: 09-29N, Länge: 138-05E, Höhe: 28 m

Beobachtung

Neuester Wetterbericht von vor 1 Stunde und 5 Minuten, um 19:53 UTC
Wind 8 kt aus Nordost
Temperatur 27°C
Luftfeuchtigkeit 84%
Luftdruck 1011 hPa
Sichtweite: 19.3 km
Leicht bewölkt in der Höhe von 1600 ft
Aufgelockert bewölkt in der Höhe von 13000 ft
Durchbrochene Bewölkung in der Höhe von 30000 ft

METAR: PTYA 151953Z 05008KT 12SM FEW016 SCT130 BKN300 27/24 A2986 RMK SLP112 T02740243

Zeit: 06:58 (20:58 UTC)

Prognose

Neuester Wetterbericht von vor 3 Stunden und 38 Minuten, um 17:20 UTC
Gültige Prognose vom 15 um 18 UTC bis 16 um 18 UTC
Wind 10 kt aus Ost
Sichtweite: 10 km
Leicht bewölkt in der Höhe von 1600 ft
Aufgelockert bewölkt in der Höhe von 5000 ft
Aufgelockert bewölkt in der Höhe von 12000 ft
Schauer in der Nähe,

TAF: PTYA 151720Z 1518/1618 08010KT P6SM VCSH FEW016 SCT050 SCT120

Wetterbeobachtungen und Prognosen von mehr als 4000 Flughäfen (METAR und TAF Bericht).

Die verfügbaren Stationen werden durch gelbe und rote Markierungen auf der Karte dargestellt.

Führen Sie die Maus auf sie, um den Namen der Station zu sehen.

Darauf klicken, um die Beobachtung von Wetterbeobachtungen und Prognosen zu sehen.

Um die Karte zu ändern : klicken Sie auf den grünen Tasten mit einem schwarzen Kreuz Zum Vergrößern, auf den grünen Button mit einem Gedankenstrich zu verkleinern, oder auf die grünen Pfeile für benachbarte Karten.


METAR-TAF: